Salt Lake City, Utah
Traffic Map
Current Weather Conditions
Salt Lake City, Utah
Few Clouds
Few Clouds
94°
Feels Like: 94°
Wind Chill: 94° Ceiling: Unl
Heat Index: 94° Visibility: 10mi
Dew Point: 41° Wind: 5mph
Humidity: 16% Direction: ° ()
Pressure: 30.07in Gusts: 0mph
Raw Report DataKSLC 251754Z VRB04KT 10SM FEW110 FEW180 34/05 A3007 RMK AO2 SLP115 T03440050 10344 20233 58002
Traffic Incident Summary
Active as of:
Severity:
Category:
InformationThere was an issue retrieving the traffic information for this location. Please try a different location or try again shortly.
Advertisements
Track Severe Weather on mobile